createdAt,value
2023-12-11T00:00:15.497Z,30.26
2023-12-11T00:04:17.015Z,30.13
2023-12-11T00:08:18.521Z,29.19
2023-12-11T00:12:19.969Z,28.62
2023-12-11T00:16:21.422Z,28.80
2023-12-11T00:20:24.164Z,28.98
2023-12-11T00:24:25.947Z,28.43
2023-12-11T00:28:28.794Z,28.35
2023-12-11T00:32:31.650Z,28.71
2023-12-11T00:36:33.275Z,27.88
2023-12-11T00:40:35.179Z,28.36
2023-12-11T00:44:39.791Z,28.20
2023-12-11T00:48:41.730Z,27.83
2023-12-11T00:52:43.373Z,28.19
2023-12-11T00:56:45.394Z,27.92
2023-12-11T01:00:48.686Z,28.37
2023-12-11T01:04:50.573Z,28.90
2023-12-11T01:08:53.506Z,28.55
2023-12-11T01:12:55.841Z,28.24
2023-12-11T01:16:57.448Z,28.74
2023-12-11T01:20:59.486Z,28.69
2023-12-11T01:25:04.271Z,29.42
2023-12-11T01:29:06.303Z,29.33
2023-12-11T01:33:08.531Z,29.05
2023-12-11T01:37:12.384Z,28.48
2023-12-11T01:41:15.488Z,28.78
2023-12-11T01:45:17.223Z,28.09
2023-12-11T01:49:20.231Z,28.01
2023-12-11T01:53:22.025Z,28.67
2023-12-11T01:57:23.716Z,28.51
2023-12-11T02:01:27.069Z,28.77
2023-12-11T02:05:28.717Z,28.79
2023-12-11T02:09:30.302Z,28.20
2023-12-11T02:13:32.763Z,27.40
2023-12-11T02:17:34.623Z,27.83
2023-12-11T02:21:36.626Z,27.36
2023-12-11T02:25:38.850Z,27.25
2023-12-11T02:29:40.568Z,28.27
2023-12-11T02:33:42.926Z,27.99
2023-12-11T02:37:44.900Z,28.00
2023-12-11T02:41:46.380Z,27.63
2023-12-11T02:45:48.163Z,27.16
2023-12-11T02:49:49.752Z,26.86
2023-12-11T02:53:51.812Z,27.27
2023-12-11T02:57:58.788Z,27.78
2023-12-11T03:02:00.545Z,27.18
2023-12-11T03:06:06.898Z,27.64
2023-12-11T03:10:09.431Z,26.92
2023-12-11T03:14:10.954Z,26.36
2023-12-11T03:18:12.455Z,25.59
2023-12-11T03:22:14.458Z,26.42
2023-12-11T03:26:16.116Z,26.45
2023-12-11T03:30:17.703Z,26.65
2023-12-11T03:34:20.794Z,26.35
2023-12-11T03:38:22.458Z,26.13
2023-12-11T03:42:23.908Z,26.21
2023-12-11T03:46:25.447Z,25.70
2023-12-11T03:50:26.896Z,25.77
2023-12-11T03:54:29.029Z,26.45
2023-12-11T03:58:30.702Z,26.29
2023-12-11T04:02:32.229Z,26.66
2023-12-11T04:06:33.793Z,26.60
2023-12-11T04:10:35.322Z,26.44
2023-12-11T04:14:37.027Z,27.25
2023-12-11T04:18:39.128Z,26.32
2023-12-11T04:22:41.012Z,25.73
2023-12-11T04:26:42.722Z,26.61
2023-12-11T04:30:44.540Z,26.71
2023-12-11T04:34:46.022Z,25.81
2023-12-11T04:38:53.460Z,25.46
2023-12-11T04:42:55.081Z,26.07
2023-12-11T04:46:56.566Z,25.99
2023-12-11T04:50:58.104Z,25.94
2023-12-11T04:54:59.718Z,26.56
2023-12-11T04:59:01.490Z,26.54
2023-12-11T05:03:03.146Z,26.00
2023-12-11T05:07:04.641Z,26.29
2023-12-11T05:11:07.103Z,28.17
2023-12-11T05:15:09.067Z,26.61
2023-12-11T05:19:10.638Z,26.64
2023-12-11T05:23:13.743Z,26.89
2023-12-11T05:27:15.249Z,27.41
2023-12-11T05:31:17.829Z,27.71
2023-12-11T05:35:19.384Z,28.74
2023-12-11T05:39:20.863Z,28.46
2023-12-11T05:43:22.445Z,28.57
2023-12-11T05:47:24.082Z,28.99
2023-12-11T05:51:25.893Z,29.74
2023-12-11T05:55:27.420Z,29.12
2023-12-11T05:59:28.827Z,28.29
2023-12-11T06:03:30.303Z,28.69
2023-12-11T06:07:32.177Z,28.44
2023-12-11T06:11:33.794Z,29.36
2023-12-11T06:15:35.299Z,29.55
2023-12-11T06:19:36.868Z,29.52
2023-12-11T06:23:38.420Z,29.12
2023-12-11T06:27:44.273Z,29.24
2023-12-11T06:31:45.959Z,29.77
2023-12-11T06:35:47.422Z,29.22
2023-12-11T06:39:49.756Z,30.08
2023-12-11T06:43:54.339Z,30.01
2023-12-11T06:47:55.760Z,28.95
2023-12-11T06:51:57.554Z,29.26
2023-12-11T06:55:58.915Z,28.80
2023-12-11T07:00:03.352Z,29.55
2023-12-11T07:04:08.598Z,29.66
2023-12-11T07:08:10.584Z,29.74
2023-12-11T07:12:12.031Z,30.24
2023-12-11T07:16:15.831Z,29.72
2023-12-11T07:20:17.680Z,30.13
2023-12-11T07:24:19.181Z,30.07
2023-12-11T07:28:20.993Z,28.94
2023-12-11T07:32:22.838Z,30.04
2023-12-11T07:36:25.948Z,29.97
2023-12-11T07:40:27.690Z,29.16
2023-12-11T07:44:29.179Z,29.26
2023-12-11T07:48:31.901Z,29.97
2023-12-11T07:52:33.827Z,30.41
2023-12-11T07:56:38.725Z,29.19
2023-12-11T08:00:40.596Z,29.35
2023-12-11T08:04:42.250Z,29.69
2023-12-11T08:08:46.666Z,29.98
2023-12-11T08:12:55.139Z,29.74
2023-12-11T08:16:56.809Z,30.59
2023-12-11T08:20:58.308Z,29.16
2023-12-11T08:24:59.956Z,30.33
2023-12-11T08:29:01.497Z,29.13
2023-12-11T08:33:03.025Z,28.88
2023-12-11T08:37:04.825Z,29.91
2023-12-11T08:41:06.478Z,27.91
2023-12-11T08:45:11.722Z,28.46
2023-12-11T08:49:13.269Z,28.36
2023-12-11T08:53:15.412Z,27.50
2023-12-11T08:57:17.184Z,27.67
2023-12-11T09:01:19.635Z,26.41
2023-12-11T09:05:21.285Z,27.56
2023-12-11T09:09:22.871Z,27.74
2023-12-11T09:13:27.409Z,26.69
2023-12-11T09:17:31.360Z,27.93
2023-12-11T09:21:33.260Z,26.95
2023-12-11T09:25:36.831Z,28.11
2023-12-11T09:29:38.768Z,29.04
2023-12-11T09:33:41.914Z,28.01
2023-12-11T09:37:44.324Z,27.84
2023-12-11T09:41:46.213Z,27.83
2023-12-11T09:45:51.186Z,27.84
2023-12-11T09:49:53.155Z,28.19
2023-12-11T09:53:55.540Z,26.92
2023-12-11T09:57:58.280Z,27.22
2023-12-11T10:02:00.011Z,28.40
2023-12-11T10:06:01.874Z,27.96
2023-12-11T10:10:24.132Z,27.49
2023-12-11T10:14:25.859Z,28.54
2023-12-11T10:18:27.429Z,28.57
2023-12-11T10:22:33.407Z,28.03
2023-12-11T10:26:38.967Z,27.62
2023-12-11T10:30:52.384Z,27.49
2023-12-11T10:34:54.289Z,28.25
2023-12-11T10:39:09.386Z,27.91
2023-12-11T10:43:11.145Z,27.36
2023-12-11T10:47:13.137Z,27.74
2023-12-11T10:51:15.085Z,28.35
2023-12-11T10:55:17.072Z,27.58
2023-12-11T10:59:18.917Z,27.68
2023-12-11T11:03:25.408Z,26.77
2023-12-11T11:07:36.298Z,28.17
2023-12-11T11:11:43.926Z,27.64
2023-12-11T11:15:52.116Z,27.41
2023-12-11T11:20:12.001Z,28.96
2023-12-11T11:24:29.933Z,27.30
2023-12-11T11:28:52.030Z,28.49
2023-12-11T11:32:56.901Z,27.04
2023-12-11T11:36:58.377Z,27.94
2023-12-11T11:41:00.793Z,28.21
2023-12-11T11:45:05.136Z,29.39
2023-12-11T11:49:06.735Z,29.08
2023-12-11T11:53:12.920Z,29.44
2023-12-11T11:57:14.830Z,29.27
2023-12-11T12:01:16.398Z,30.33
2023-12-11T12:05:17.908Z,29.06
2023-12-11T12:09:19.863Z,28.87
2023-12-11T12:13:21.532Z,29.50
2023-12-11T12:17:23.000Z,30.26
2023-12-11T12:21:24.582Z,32.01
2023-12-11T12:25:28.988Z,30.93
2023-12-11T12:29:32.561Z,34.02
2023-12-11T12:33:34.124Z,33.01
2023-12-11T12:37:36.313Z,33.15
2023-12-11T12:41:38.192Z,32.47
2023-12-11T12:45:46.379Z,33.08
2023-12-11T12:49:48.604Z,32.99
2023-12-11T12:53:53.591Z,32.23
2023-12-11T12:57:55.918Z,32.14
2023-12-11T13:01:57.535Z,32.26
2023-12-11T13:06:00.665Z,32.85
2023-12-11T13:10:09.192Z,32.35
2023-12-11T13:14:14.938Z,32.97
2023-12-11T13:18:16.832Z,32.15
2023-12-11T13:22:19.220Z,31.51
2023-12-11T13:26:21.120Z,32.03
2023-12-11T13:30:23.756Z,31.17
2023-12-11T13:34:25.642Z,31.71
2023-12-11T13:38:28.501Z,31.40
2023-12-11T13:42:29.977Z,31.03
2023-12-11T13:46:31.620Z,31.33
2023-12-11T13:50:33.219Z,30.93
2023-12-11T13:54:34.635Z,30.17
2023-12-11T13:58:36.120Z,31.03
2023-12-11T14:02:59.855Z,31.50
2023-12-11T14:07:00.813Z,30.59
2023-12-11T14:11:03.093Z,31.43
2023-12-11T14:15:08.856Z,30.27
2023-12-11T14:19:10.668Z,30.46
2023-12-11T14:23:13.820Z,30.42
2023-12-11T14:27:15.414Z,30.02
2023-12-11T14:31:17.213Z,29.88
2023-12-11T14:35:19.063Z,30.35
2023-12-11T14:39:24.639Z,30.91
2023-12-11T14:43:26.917Z,30.96
2023-12-11T14:47:29.285Z,31.10
2023-12-11T14:51:31.211Z,31.33
2023-12-11T14:55:35.270Z,30.99
2023-12-11T14:59:40.837Z,30.59
2023-12-11T15:03:43.323Z,30.55
2023-12-11T15:07:45.196Z,30.48
2023-12-11T15:11:46.698Z,31.51
2023-12-11T15:15:48.664Z,31.06
2023-12-11T15:19:50.378Z,32.08
2023-12-11T15:23:51.932Z,30.83
2023-12-11T15:27:53.860Z,31.23
2023-12-11T15:31:55.392Z,31.80
2023-12-11T15:35:57.044Z,32.53
2023-12-11T15:39:58.598Z,32.40
2023-12-11T15:44:00.246Z,32.93
2023-12-11T15:48:03.352Z,32.37
2023-12-11T15:52:07.787Z,33.72
2023-12-11T15:56:11.957Z,33.09
2023-12-11T16:00:14.369Z,33.04
2023-12-11T16:04:16.341Z,33.35
2023-12-11T16:08:17.903Z,33.24
2023-12-11T16:12:19.674Z,33.66
2023-12-11T16:16:21.160Z,33.56
2023-12-11T16:20:22.740Z,33.13
2023-12-11T16:24:30.732Z,33.47
2023-12-11T16:28:32.224Z,33.10
2023-12-11T16:32:33.959Z,33.85
2023-12-11T16:36:36.054Z,33.03
2023-12-11T16:40:37.531Z,32.71
2023-12-11T16:44:42.704Z,33.13
2023-12-11T16:48:44.864Z,33.10
2023-12-11T16:52:46.471Z,32.77
2023-12-11T16:56:48.219Z,34.30
2023-12-11T17:00:49.746Z,32.82
2023-12-11T17:04:51.724Z,32.52
2023-12-11T17:08:53.326Z,33.03
2023-12-11T17:12:54.823Z,33.06
2023-12-11T17:16:56.517Z,32.80
2023-12-11T17:20:58.049Z,33.13
2023-12-11T17:25:00.753Z,33.71
2023-12-11T17:29:02.275Z,32.59
2023-12-11T17:33:04.590Z,31.79
2023-12-11T17:37:06.103Z,32.05
2023-12-11T17:41:09.257Z,32.24
2023-12-11T17:45:10.762Z,32.71
2023-12-11T17:49:12.676Z,32.02
2023-12-11T17:53:14.592Z,31.67
2023-12-11T17:57:16.325Z,31.71
2023-12-11T18:01:17.846Z,31.73
2023-12-11T18:05:21.698Z,31.25
2023-12-11T18:09:23.346Z,32.05
2023-12-11T18:13:26.461Z,32.27
2023-12-11T18:17:28.118Z,32.69
2023-12-11T18:21:30.768Z,33.01
2023-12-11T18:25:32.772Z,32.79
2023-12-11T18:29:34.690Z,33.77
2023-12-11T18:33:36.602Z,33.44
2023-12-11T18:37:38.393Z,33.50
2023-12-11T18:41:40.870Z,33.27
2023-12-11T18:45:42.690Z,32.68
2023-12-11T18:49:44.527Z,32.32
2023-12-11T18:53:46.217Z,33.40
2023-12-11T18:57:47.881Z,34.06
2023-12-11T19:01:49.669Z,33.49
2023-12-11T19:05:52.226Z,33.89
2023-12-11T19:09:54.174Z,32.81
2023-12-11T19:13:55.873Z,31.82
2023-12-11T19:17:57.691Z,32.77
2023-12-11T19:21:59.568Z,32.50
2023-12-11T19:26:01.116Z,32.46
2023-12-11T19:30:03.431Z,33.28
2023-12-11T19:34:06.507Z,32.42
2023-12-11T19:38:08.905Z,32.16
2023-12-11T19:42:17.818Z,31.64
2023-12-11T19:46:19.304Z,31.27
2023-12-11T19:50:24.115Z,31.71
2023-12-11T19:54:26.702Z,31.22
2023-12-11T19:58:29.675Z,31.64
2023-12-11T20:02:31.560Z,30.79
2023-12-11T20:06:33.545Z,30.96
2023-12-11T20:10:35.117Z,30.91
2023-12-11T20:14:41.600Z,30.67
2023-12-11T20:18:43.634Z,30.85
2023-12-11T20:22:45.378Z,30.30
2023-12-11T20:26:48.178Z,30.60
2023-12-11T20:30:49.654Z,29.86
2023-12-11T20:34:51.155Z,29.48
2023-12-11T20:38:53.882Z,29.82
2023-12-11T20:42:55.828Z,29.67
2023-12-11T20:46:57.584Z,29.89
2023-12-11T20:51:00.581Z,29.82
2023-12-11T20:55:02.265Z,29.68
2023-12-11T20:59:04.615Z,29.20
2023-12-11T21:03:06.404Z,29.18
2023-12-11T21:07:08.220Z,29.04
2023-12-11T21:11:12.752Z,29.19
2023-12-11T21:15:14.306Z,28.92
2023-12-11T21:19:16.946Z,29.07
2023-12-11T21:23:18.700Z,29.37
2023-12-11T21:27:20.734Z,29.29
2023-12-11T21:31:30.591Z,29.32
2023-12-11T21:35:33.119Z,29.13
2023-12-11T21:39:35.623Z,29.01
2023-12-11T21:43:37.010Z,29.27
2023-12-11T21:47:38.789Z,29.21
2023-12-11T21:51:40.254Z,29.63
2023-12-11T21:55:41.668Z,28.86
2023-12-11T21:59:48.137Z,28.43
2023-12-11T22:03:50.256Z,28.69
2023-12-11T22:07:51.968Z,29.23
2023-12-11T22:11:53.440Z,28.68
2023-12-11T22:15:59.645Z,28.61
2023-12-11T22:20:01.448Z,28.97
2023-12-11T22:24:03.108Z,28.97
2023-12-11T22:28:06.242Z,28.01
2023-12-11T22:32:08.137Z,28.81
2023-12-11T22:36:09.944Z,28.56
2023-12-11T22:40:11.669Z,29.01
2023-12-11T22:44:13.321Z,28.71
2023-12-11T22:48:17.212Z,28.60
2023-12-11T22:52:18.973Z,28.49
2023-12-11T22:56:20.590Z,28.34
2023-12-11T23:00:24.058Z,28.55
2023-12-11T23:04:25.946Z,28.21
2023-12-11T23:08:27.565Z,28.40
2023-12-11T23:12:29.003Z,28.25
2023-12-11T23:16:30.837Z,28.61
2023-12-11T23:20:32.287Z,28.49
2023-12-11T23:24:35.766Z,28.65
2023-12-11T23:28:37.431Z,28.54
2023-12-11T23:32:38.901Z,28.69
2023-12-11T23:36:40.685Z,28.76
2023-12-11T23:40:42.049Z,28.44
2023-12-11T23:44:43.439Z,28.39
2023-12-11T23:48:45.169Z,28.34
2023-12-11T23:52:46.918Z,28.61
2023-12-11T23:56:48.342Z,28.48
